»·PEaware :: N701GT KCOS-KSAN

N701GT :: KCOS-KSAN

FLIGHT INFORMATION

Flight Status: Arrived
Operator: Privately registered:
United States
More flights under this callsign
Pilot: Greg L. (17564)
Aircraft: GATES LEARJET LEARJET 25
(LJ25)
More flights by this aircraft type
Origin: KCOS City Of Colorado Springs Mun
United States
Destination: KSAN San Diego Intl-Lindbergh
United States
More flights between these airports :: More routes between these airports
Route: +BRK V83 PUB RODDY TBC PLNDL Q86 TTRUE LUCKI1
File this flight plan on PilotEdge
Remarks: ASP4 Weather Gen (Real World)
Altitude:
(Current/Filed)
38,000ft
Speed:
(Current/Filed)
350kts
Departed: 16-May-18 06:29 PM
Arrived: 16-May-18 08:26 PM
Distance/Time
Traveled:
707nm/1:57
Distance/Time
To Go:
Arrived

Flight Plot

Page will automatically refresh every two minutes.

Flight plan parsing failed; only flown route is shown


Map Options




Map Legend


Flown Route
Filed Route
Departure Airport
Arrival Airport
Navaid (VOR, NDB)
Fix

Horizontal Profiles

Position Reports

Time Latitude Longitude Heading Altitude Ground
Speed
16-May-18 17:56 38.813310 -104.720143 269 6129ft 0kts
16-May-18 17:57 38.813310 -104.720143 269 6129ft 0kts
16-May-18 17:58 38.813310 -104.720143 269 6129ft 0kts
16-May-18 17:59 38.813310 -104.720143 269 6129ft 0kts
16-May-18 18:00 38.813310 -104.720143 269 6129ft 0kts
16-May-18 18:01 38.813310 -104.720143 269 6129ft 0kts
16-May-18 18:02 38.813310 -104.720143 269 6129ft 0kts
16-May-18 18:03 38.813310 -104.720143 269 6129ft 0kts
16-May-18 18:04 38.813310 -104.720143 269 6129ft 0kts
16-May-18 18:05 38.813310 -104.720143 269 6129ft 0kts
16-May-18 18:06 38.813310 -104.720143 269 6129ft 0kts
16-May-18 18:07 38.813310 -104.720143 269 6129ft 0kts
16-May-18 18:08 38.813310 -104.720143 269 6129ft 0kts
16-May-18 18:09 38.813310 -104.720143 269 6129ft 0kts
16-May-18 18:10 38.813310 -104.720143 269 6129ft 0kts
16-May-18 18:11 38.813310 -104.720143 269 6129ft 0kts
16-May-18 18:12 38.813310 -104.720143 269 6129ft 0kts
16-May-18 18:13 38.813310 -104.720143 269 6129ft 0kts
16-May-18 18:14 38.813310 -104.720143 269 6129ft 0kts
16-May-18 18:15 38.813310 -104.720143 269 6129ft 0kts
16-May-18 18:16 38.813201 -104.720119 92 6129ft 0kts
16-May-18 18:17 38.811994 -104.719348 141 6129ft 6kts
16-May-18 18:18 38.811468 -104.718682 92 6129ft 0kts
16-May-18 18:19 38.811468 -104.718681 92 6129ft 0kts
16-May-18 18:20 38.811199 -104.717929 106 6129ft 8kts
16-May-18 18:21 38.811243 -104.716848 32 6129ft 7kts
16-May-18 18:22 38.812828 -104.716764 358 6129ft 8kts
16-May-18 18:23 38.814288 -104.716771 359 6129ft 6kts
16-May-18 18:24 38.815853 -104.716770 0 6129ft 8kts
16-May-18 18:25 38.819421 -104.716744 0 6129ft 16kts
16-May-18 18:26 38.821804 -104.716699 14 6129ft 0kts
16-May-18 18:27 38.821804 -104.716699 14 6129ft 0kts
16-May-18 18:28 38.822125 -104.715907 174 6129ft 8kts
16-May-18 18:29 38.791174 -104.715692 177 7103ft 179kts
16-May-18 18:30 38.737216 -104.714517 180 9667ft 247kts
16-May-18 18:31 38.667154 -104.715362 178 11961ft 250kts
16-May-18 18:32 38.604365 -104.661733 147 14402ft 346kts
16-May-18 18:33 38.510100 -104.589606 151 16360ft 404kts
16-May-18 18:34 38.404435 -104.551870 194 18464ft 406kts
16-May-18 18:35 38.321094 -104.640672 249 20587ft 407kts
16-May-18 18:36 38.319476 -104.784405 274 22711ft 417kts
16-May-18 18:37 38.329341 -104.933399 275 24861ft 428kts
16-May-18 18:38 38.339552 -105.086772 274 27165ft 439kts
16-May-18 18:39 38.349806 -105.243719 274 29461ft 450kts
16-May-18 18:40 38.349725 -105.402101 255 31754ft 448kts
16-May-18 18:41 38.300304 -105.546910 248 34050ft 443kts
16-May-18 18:42 38.251237 -105.689174 248 36326ft 436kts
16-May-18 18:43 38.202230 -105.829928 248 38278ft 437kts
16-May-18 18:44 38.154386 -105.966528 248 38371ft 423kts
16-May-18 18:45 38.106063 -106.103896 248 38429ft 426kts
16-May-18 18:46 38.057495 -106.241293 247 38490ft 428kts
16-May-18 18:47 38.008688 -106.378720 247 38489ft 428kts
16-May-18 18:48 37.959558 -106.516424 247 38484ft 427kts
16-May-18 18:49 37.910545 -106.653167 247 38486ft 426kts
16-May-18 18:50 37.861543 -106.789260 247 38495ft 424kts
16-May-18 18:51 37.812390 -106.925160 247 38478ft 423kts
16-May-18 18:52 37.763359 -107.060108 247 38451ft 422kts
16-May-18 18:53 37.714276 -107.194597 247 38440ft 422kts
16-May-18 18:54 37.664927 -107.329207 247 38325ft 421kts
16-May-18 18:55 37.615736 -107.462805 247 38323ft 420kts
16-May-18 18:56 37.566247 -107.596623 246 38319ft 420kts
16-May-18 18:57 37.516808 -107.729719 246 38309ft 420kts
16-May-18 18:58 37.467208 -107.862665 246 38283ft 420kts
16-May-18 18:59 37.417318 -107.995814 246 38265ft 420kts
16-May-18 19:00 37.367648 -108.127891 246 39690ft 409kts
16-May-18 19:01 37.317799 -108.258307 249 38266ft 404kts
16-May-18 19:02 37.271329 -108.388159 244 38212ft 412kts
16-May-18 19:03 37.220171 -108.517378 245 38203ft 414kts
16-May-18 19:04 37.169902 -108.647905 246 38200ft 415kts
16-May-18 19:05 37.119815 -108.778093 246 38200ft 415kts
16-May-18 19:06 37.069628 -108.908108 245 38202ft 415kts
16-May-18 19:07 37.019190 -109.038250 245 38205ft 414kts
16-May-18 19:08 36.968822 -109.167675 245 38202ft 414kts
16-May-18 19:09 36.918201 -109.297218 245 38207ft 413kts
16-May-18 19:10 36.867651 -109.426049 245 38210ft 413kts
16-May-18 19:11 36.817055 -109.554469 245 38220ft 412kts
16-May-18 19:12 36.766201 -109.683023 245 38217ft 412kts
16-May-18 19:13 36.715452 -109.810792 245 38212ft 411kts
16-May-18 19:14 36.664617 -109.938268 245 38203ft 411kts
16-May-18 19:15 36.613576 -110.065747 245 38194ft 410kts
16-May-18 19:16 36.562646 -110.192442 245 38185ft 409kts
16-May-18 19:17 36.511471 -110.319244 245 38176ft 409kts
16-May-18 19:18 36.460358 -110.445395 245 38167ft 409kts
16-May-18 19:19 36.409103 -110.571396 245 38158ft 409kts
16-May-18 19:20 36.357610 -110.697491 244 38151ft 408kts
16-May-18 19:21 36.306184 -110.822929 244 38154ft 408kts
16-May-18 19:22 36.254706 -110.948011 244 38156ft 408kts
16-May-18 19:23 36.202945 -111.073297 244 38161ft 407kts
16-May-18 19:24 36.151327 -111.197753 244 38169ft 406kts
16-May-18 19:25 36.098711 -111.321243 241 38181ft 406kts
16-May-18 19:26 36.042068 -111.441757 241 38192ft 405kts
16-May-18 19:27 35.985958 -111.562168 241 38203ft 404kts
16-May-18 19:28 35.929859 -111.682469 241 38228ft 403kts
16-May-18 19:29 35.873955 -111.801984 241 38240ft 402kts
16-May-18 19:30 35.818287 -111.921580 242 38244ft 402kts
16-May-18 19:31 35.763949 -112.042418 242 38245ft 402kts
16-May-18 19:32 35.709025 -112.162194 241 38245ft 402kts
16-May-18 19:33 35.653069 -112.281070 241 38237ft 401kts
16-May-18 19:34 35.606287 -112.380288 241 38233ft 401kts
16-May-18 19:35 35.550995 -112.498881 241 38227ft 400kts
16-May-18 19:36 35.495606 -112.617407 241 38221ft 399kts
16-May-18 19:37 35.440385 -112.735136 241 38213ft 398kts
16-May-18 19:38 35.385344 -112.852073 241 38202ft 397kts
16-May-18 19:39 35.329740 -112.969797 241 38186ft 396kts
16-May-18 19:40 35.274439 -113.086482 241 38149ft 396kts
16-May-18 19:41 35.219114 -113.202822 241 38111ft 396kts
16-May-18 19:42 35.163561 -113.319264 241 38092ft 395kts
16-May-18 19:43 35.108160 -113.434978 241 38076ft 395kts
16-May-18 19:44 35.052546 -113.550756 241 38065ft 394kts
16-May-18 19:45 34.997052 -113.665896 241 38055ft 393kts
16-May-18 19:46 34.941591 -113.780588 241 38045ft 393kts
16-May-18 19:47 34.885923 -113.895327 241 38030ft 392kts
16-May-18 19:48 34.829145 -114.008497 239 37978ft 391kts
16-May-18 19:49 34.771200 -114.120168 239 37950ft 390kts
16-May-18 19:50 34.713128 -114.232253 239 37504ft 391kts
16-May-18 19:51 34.655029 -114.344124 239 36709ft 392kts
16-May-18 19:52 34.587025 -114.449040 231 35901ft 398kts
16-May-18 19:53 34.513308 -114.549844 231 35010ft 401kts
16-May-18 19:54 34.438791 -114.651437 230 34119ft 405kts
16-May-18 19:55 34.363214 -114.754181 230 33225ft 410kts
16-May-18 19:56 34.287488 -114.858020 230 32334ft 414kts
16-May-18 19:57 34.211017 -114.962896 230 31445ft 418kts
16-May-18 19:58 34.133395 -115.068990 229 30553ft 422kts
16-May-18 19:59 34.055151 -115.175606 229 29665ft 427kts
16-May-18 20:00 33.975829 -115.283360 229 28778ft 430kts
16-May-18 20:01 33.896619 -115.390626 229 27881ft 427kts
16-May-18 20:02 33.818028 -115.496735 229 26984ft 423kts
16-May-18 20:03 33.739830 -115.601998 228 26083ft 419kts
16-May-18 20:04 33.662449 -115.705855 228 25185ft 416kts
16-May-18 20:05 33.590790 -115.813449 235 24804ft 412kts
16-May-18 20:06 33.525434 -115.926760 235 24800ft 412kts
16-May-18 20:07 33.460082 -116.039604 234 23975ft 412kts
16-May-18 20:08 33.396989 -116.148173 234 22350ft 378kts
16-May-18 20:09 33.339202 -116.242264 224 21690ft 325kts
16-May-18 20:10 33.261056 -116.295051 208 19803ft 303kts
16-May-18 20:11 33.183904 -116.340163 208 16985ft 309kts
16-May-18 20:12 33.107242 -116.384941 208 13988ft 303kts
16-May-18 20:13 33.033044 -116.428226 208 12891ft 293kts
16-May-18 20:14 32.966177 -116.482499 220 12965ft 292kts
16-May-18 20:15 32.903005 -116.543449 220 12983ft 293kts
16-May-18 20:16 32.841646 -116.602517 220 10899ft 255kts
16-May-18 20:17 32.789079 -116.660519 223 8407ft 258kts
16-May-18 20:18 32.746521 -116.727173 235 6037ft 245kts
16-May-18 20:19 32.718633 -116.789865 244 6001ft 243kts
16-May-18 20:20 32.694475 -116.857884 250 6008ft 226kts
16-May-18 20:21 32.672969 -116.929002 256 5983ft 234kts
16-May-18 20:22 32.688346 -117.003711 291 4336ft 236kts
16-May-18 20:23 32.703806 -117.068183 285 2603ft 162kts
16-May-18 20:24 32.717241 -117.118988 286 1425ft 144kts
16-May-18 20:25 32.727564 -117.164364 285 359ft 133kts
16-May-18 20:26 32.732990 -117.187095 288 18ft 27kts
16-May-18 20:27 32.733954 -117.188107 25 18ft 0kts
16-May-18 20:28 32.733447 -117.184508 106 18ft 17kts
16-May-18 20:29 32.732887 -117.179728 18 18ft 9kts
16-May-18 20:30 32.733868 -117.179805 107 18ft 0kts
16-May-18 20:31 32.733868 -117.179805 107 18ft 0kts
16-May-18 20:32 32.733868 -117.179805 107 18ft 0kts
16-May-18 20:33 32.733868 -117.179805 107 18ft 0kts
16-May-18 20:34 32.733868 -117.179805 107 18ft 0kts
16-May-18 20:35 32.733868 -117.179805 107 18ft 0kts
16-May-18 20:36 32.733868 -117.179805 107 18ft 0kts
16-May-18 20:37 32.733868 -117.179805 107 18ft 0kts
16-May-18 20:38 32.733868 -117.179805 107 18ft 0kts
16-May-18 20:39 32.733868 -117.179805 107 18ft 0kts
16-May-18 20:40 32.733868 -117.179805 107 18ft 0kts

Navigation Log

Ident Type
Flight plan parsing failed, navigation log unavailable